createdAt,value
2023-05-14T00:00:29.414Z,79.42
2023-05-14T00:02:56.445Z,79.60
2023-05-14T00:05:23.449Z,79.42
2023-05-14T00:07:49.979Z,79.55
2023-05-14T00:10:17.753Z,79.19
2023-05-14T00:12:44.194Z,79.96
2023-05-14T00:15:10.810Z,79.63
2023-05-14T00:17:38.148Z,79.75
2023-05-14T00:20:07.308Z,79.58
2023-05-14T00:22:34.389Z,79.56
2023-05-14T00:25:00.954Z,79.90
2023-05-14T00:27:27.350Z,79.98
2023-05-14T00:29:53.888Z,79.94
2023-05-14T00:32:20.499Z,80.24
2023-05-14T00:34:47.124Z,80.60
2023-05-14T00:37:13.700Z,80.65
2023-05-14T00:39:40.312Z,80.70
2023-05-14T00:42:07.086Z,80.77
2023-05-14T00:44:33.600Z,80.91
2023-05-14T00:47:00.620Z,81.00
2023-05-14T00:49:28.744Z,81.33
2023-05-14T00:51:55.963Z,81.55
2023-05-14T00:54:22.815Z,81.93
2023-05-14T00:56:49.352Z,82.12
2023-05-14T00:59:15.883Z,82.26
2023-05-14T01:01:42.939Z,82.28
2023-05-14T01:04:11.515Z,82.50
2023-05-14T01:06:49.406Z,82.37
2023-05-14T01:09:36.610Z,82.63
2023-05-14T01:12:12.420Z,82.60
2023-05-14T01:14:50.381Z,82.55
2023-05-14T01:17:20.111Z,82.65
2023-05-14T01:19:47.795Z,82.71
2023-05-14T01:22:14.508Z,82.88
2023-05-14T01:24:41.122Z,83.01
2023-05-14T01:27:19.474Z,83.08
2023-05-14T01:29:57.937Z,83.22
2023-05-14T01:32:25.970Z,83.24
2023-05-14T01:34:53.938Z,83.15
2023-05-14T01:37:21.440Z,83.27
2023-05-14T01:39:49.543Z,83.38
2023-05-14T01:42:16.199Z,83.57
2023-05-14T01:44:43.273Z,83.51
2023-05-14T01:47:09.700Z,83.63
2023-05-14T01:49:37.229Z,84.22
2023-05-14T01:52:03.947Z,84.42
2023-05-14T01:54:30.597Z,84.23
2023-05-14T01:56:57.116Z,84.03
2023-05-14T01:59:23.610Z,84.20
2023-05-14T02:01:50.154Z,84.63
2023-05-14T02:04:16.648Z,84.91
2023-05-14T02:06:43.245Z,84.74
2023-05-14T02:09:09.750Z,84.83
2023-05-14T02:11:36.241Z,85.59
2023-05-14T02:14:02.697Z,85.16
2023-05-14T02:16:29.314Z,85.29
2023-05-14T02:18:55.874Z,85.45
2023-05-14T02:21:22.447Z,85.66
2023-05-14T02:23:49.600Z,85.62
2023-05-14T02:26:16.175Z,85.98
2023-05-14T02:28:42.617Z,85.26
2023-05-14T02:31:09.204Z,85.37
2023-05-14T02:33:35.808Z,85.42
2023-05-14T02:36:02.445Z,85.40
2023-05-14T02:38:28.874Z,85.49
2023-05-14T02:40:55.354Z,85.26
2023-05-14T02:43:21.834Z,85.29
2023-05-14T02:45:48.305Z,85.10
2023-05-14T02:48:14.829Z,85.17
2023-05-14T02:50:41.588Z,84.99
2023-05-14T02:53:08.739Z,84.77
2023-05-14T02:55:36.421Z,84.59
2023-05-14T02:58:02.997Z,84.03
2023-05-14T03:00:29.498Z,84.12
2023-05-14T03:02:56.366Z,83.91
2023-05-14T03:05:23.207Z,84.19
2023-05-14T03:07:51.865Z,83.87
2023-05-14T03:10:26.025Z,84.05
2023-05-14T03:12:52.704Z,83.84
2023-05-14T03:15:19.204Z,83.88
2023-05-14T03:17:45.726Z,84.03
2023-05-14T03:20:12.941Z,84.30
2023-05-14T03:22:39.553Z,84.17
2023-05-14T03:25:06.377Z,84.35
2023-05-14T03:27:33.704Z,83.97
2023-05-14T03:30:00.788Z,83.59
2023-05-14T03:32:27.413Z,83.42
2023-05-14T03:34:54.278Z,83.34
2023-05-14T03:37:20.969Z,83.41
2023-05-14T03:39:47.453Z,83.18
2023-05-14T03:42:13.978Z,83.34
2023-05-14T03:44:40.749Z,83.32
2023-05-14T03:47:07.646Z,83.60
2023-05-14T03:49:34.323Z,83.72
2023-05-14T03:52:00.826Z,83.88
2023-05-14T03:54:27.346Z,84.03
2023-05-14T03:56:53.870Z,84.16
2023-05-14T03:59:20.441Z,84.52
2023-05-14T04:01:47.000Z,84.32
2023-05-14T04:04:13.720Z,84.83
2023-05-14T04:06:40.324Z,84.81
2023-05-14T04:09:06.794Z,84.71
2023-05-14T04:11:33.328Z,85.04
2023-05-14T04:13:59.784Z,85.06
2023-05-14T04:16:26.499Z,84.42
2023-05-14T04:18:53.021Z,83.72
2023-05-14T04:21:19.515Z,83.25
2023-05-14T04:23:46.016Z,82.93
2023-05-14T04:26:12.480Z,83.28
2023-05-14T04:28:38.939Z,83.06
2023-05-14T04:31:05.639Z,82.82
2023-05-14T04:33:32.159Z,82.78
2023-05-14T04:35:58.659Z,82.86
2023-05-14T04:38:25.115Z,82.79
2023-05-14T04:40:51.626Z,83.40
2023-05-14T04:43:18.074Z,83.41
2023-05-14T04:45:44.676Z,83.76
2023-05-14T04:48:11.220Z,84.36
2023-05-14T04:50:37.675Z,85.24
2023-05-14T04:53:04.219Z,85.95
2023-05-14T04:55:31.088Z,86.46
2023-05-14T04:57:57.617Z,86.49
2023-05-14T05:00:24.566Z,86.22
2023-05-14T05:02:51.417Z,86.69
2023-05-14T05:05:18.264Z,86.79
2023-05-14T05:07:44.721Z,86.18
2023-05-14T05:10:11.362Z,86.29
2023-05-14T05:12:38.476Z,86.08
2023-05-14T05:15:05.927Z,85.75
2023-05-14T05:17:32.552Z,86.18
2023-05-14T05:19:59.132Z,85.09
2023-05-14T05:22:25.860Z,84.66
2023-05-14T05:24:52.336Z,82.50
2023-05-14T05:27:21.010Z,79.37
2023-05-14T05:29:47.675Z,75.04
2023-05-14T05:32:14.212Z,69.61
2023-05-14T05:34:41.363Z,65.79
2023-05-14T05:37:09.291Z,62.33
2023-05-14T05:39:35.777Z,59.84
2023-05-14T05:42:03.022Z,58.09
2023-05-14T05:44:29.561Z,55.92
2023-05-14T05:46:58.769Z,54.52
2023-05-14T05:49:25.318Z,53.05
2023-05-14T05:51:51.770Z,52.07
2023-05-14T05:54:18.361Z,51.41
2023-05-14T05:56:44.805Z,51.12
2023-05-14T05:59:11.328Z,50.09
2023-05-14T06:01:37.939Z,49.54
2023-05-14T06:04:06.392Z,49.50
2023-05-14T06:06:33.078Z,50.06
2023-05-14T06:08:59.628Z,48.36
2023-05-14T06:11:26.660Z,48.96
2023-05-14T06:13:53.719Z,47.79
2023-05-14T06:16:20.951Z,47.61
2023-05-14T06:18:47.612Z,46.62
2023-05-14T06:21:14.196Z,45.72
2023-05-14T06:23:41.329Z,45.62
2023-05-14T06:26:07.857Z,44.87
2023-05-14T06:28:34.406Z,44.02
2023-05-14T06:31:00.918Z,44.70
2023-05-14T06:33:31.021Z,45.16
2023-05-14T06:36:01.156Z,44.05
2023-05-14T06:38:28.014Z,45.53
2023-05-14T06:40:54.654Z,45.18
2023-05-14T06:43:21.375Z,45.84
2023-05-14T06:45:52.147Z,45.51
2023-05-14T06:48:19.405Z,43.93
2023-05-14T06:50:49.597Z,43.82
2023-05-14T06:53:16.249Z,43.58
2023-05-14T06:55:42.678Z,43.41
2023-05-14T06:58:09.524Z,43.23
2023-05-14T07:00:36.029Z,43.48
2023-05-14T07:03:02.627Z,43.06
2023-05-14T07:05:29.164Z,43.44
2023-05-14T07:07:55.798Z,44.01
2023-05-14T07:10:22.538Z,44.38
2023-05-14T07:12:49.455Z,44.39
2023-05-14T07:15:15.883Z,41.82
2023-05-14T07:17:42.319Z,43.44
2023-05-14T07:20:09.470Z,43.91
2023-05-14T07:22:36.027Z,45.32
2023-05-14T07:25:03.068Z,45.36
2023-05-14T07:27:29.653Z,44.41
2023-05-14T07:29:56.179Z,46.02
2023-05-14T07:32:24.989Z,46.13
2023-05-14T07:34:51.868Z,46.85
2023-05-14T07:37:18.481Z,46.87
2023-05-14T07:39:45.165Z,47.70
2023-05-14T07:42:13.732Z,46.73
2023-05-14T07:44:46.083Z,46.52
2023-05-14T07:47:12.655Z,47.31
2023-05-14T07:49:39.251Z,47.96
2023-05-14T07:52:05.694Z,47.71
2023-05-14T07:54:32.133Z,48.05
2023-05-14T07:56:58.705Z,47.50
2023-05-14T07:59:25.166Z,47.88
2023-05-14T08:01:51.877Z,47.67
2023-05-14T08:04:18.289Z,47.72
2023-05-14T08:06:44.903Z,46.64
2023-05-14T08:09:11.403Z,46.93
2023-05-14T08:11:39.237Z,47.60
2023-05-14T08:14:05.839Z,47.13
2023-05-14T08:16:32.492Z,45.10
2023-05-14T08:18:59.397Z,47.52
2023-05-14T08:21:25.992Z,45.33
2023-05-14T08:23:52.451Z,46.71
2023-05-14T08:26:18.979Z,44.62
2023-05-14T08:28:45.434Z,42.75
2023-05-14T08:31:12.000Z,42.98
2023-05-14T08:33:39.168Z,43.87
2023-05-14T08:36:07.226Z,45.93
2023-05-14T08:38:33.990Z,44.88
2023-05-14T08:41:00.485Z,46.03
2023-05-14T08:43:33.880Z,44.41
2023-05-14T08:46:02.277Z,44.84
2023-05-14T08:48:32.671Z,44.38
2023-05-14T08:50:59.843Z,43.98
2023-05-14T08:53:26.511Z,43.90
2023-05-14T08:55:53.910Z,43.29
2023-05-14T08:58:20.829Z,43.44
2023-05-14T09:00:47.682Z,44.56
2023-05-14T09:03:15.052Z,44.82
2023-05-14T09:05:43.505Z,45.34
2023-05-14T09:08:10.020Z,45.34
2023-05-14T09:10:37.768Z,44.75
2023-05-14T09:13:05.368Z,44.56
2023-05-14T09:15:34.940Z,43.12
2023-05-14T09:18:01.420Z,44.10
2023-05-14T09:20:28.680Z,44.72
2023-05-14T09:22:55.538Z,45.38
2023-05-14T09:25:26.316Z,44.47
2023-05-14T09:27:55.653Z,46.73
2023-05-14T09:30:24.757Z,47.07
2023-05-14T09:32:53.889Z,46.36
2023-05-14T09:35:23.607Z,47.35
2023-05-14T09:37:54.711Z,45.39
2023-05-14T09:40:24.189Z,46.36
2023-05-14T09:42:51.428Z,47.12
2023-05-14T09:45:18.073Z,46.57
2023-05-14T09:47:45.414Z,47.20
2023-05-14T09:50:12.615Z,46.99
2023-05-14T09:52:43.938Z,46.90
2023-05-14T09:55:10.569Z,46.56
2023-05-14T09:57:38.446Z,46.45
2023-05-14T10:00:05.757Z,46.71
2023-05-14T10:02:42.040Z,46.15
2023-05-14T10:05:09.007Z,46.98
2023-05-14T10:07:49.523Z,47.76
2023-05-14T10:10:21.118Z,47.67
2023-05-14T10:12:57.813Z,47.03
2023-05-14T10:15:27.479Z,47.30
2023-05-14T10:17:58.819Z,47.33
2023-05-14T10:20:27.218Z,47.91
2023-05-14T10:22:53.945Z,47.52
2023-05-14T10:25:20.893Z,47.31
2023-05-14T10:27:48.856Z,47.26
2023-05-14T10:30:15.428Z,45.14
2023-05-14T10:32:44.156Z,44.56
2023-05-14T10:35:17.402Z,45.68
2023-05-14T10:37:46.009Z,45.47
2023-05-14T10:40:13.625Z,45.07
2023-05-14T10:42:43.651Z,44.09
2023-05-14T10:45:12.801Z,42.75
2023-05-14T10:47:42.727Z,42.31
2023-05-14T10:50:12.386Z,42.12
2023-05-14T10:52:44.197Z,41.86
2023-05-14T10:55:14.367Z,41.10
2023-05-14T10:57:43.976Z,42.18
2023-05-14T11:00:12.592Z,42.15
2023-05-14T11:02:41.729Z,42.63
2023-05-14T11:05:10.626Z,43.04
2023-05-14T11:07:39.812Z,43.73
2023-05-14T11:10:08.748Z,44.17
2023-05-14T11:12:38.113Z,44.33
2023-05-14T11:15:07.504Z,43.64
2023-05-14T11:17:47.839Z,43.11
2023-05-14T11:20:15.271Z,44.32
2023-05-14T11:22:43.266Z,43.81
2023-05-14T11:25:11.227Z,44.74
2023-05-14T11:27:39.780Z,43.82
2023-05-14T11:30:13.165Z,43.91
2023-05-14T11:32:41.405Z,43.76
2023-05-14T11:35:08.430Z,43.42
2023-05-14T11:37:34.898Z,42.35
2023-05-14T11:40:01.721Z,43.53
2023-05-14T11:42:28.283Z,43.43
2023-05-14T11:44:54.748Z,42.71
2023-05-14T11:47:22.326Z,42.47
2023-05-14T11:49:49.625Z,43.27
2023-05-14T11:52:19.422Z,43.27
2023-05-14T11:54:46.574Z,42.58
2023-05-14T11:57:16.370Z,42.81
2023-05-14T11:59:43.150Z,42.98
2023-05-14T12:02:18.078Z,42.30
2023-05-14T12:04:49.657Z,42.07
2023-05-14T12:07:16.545Z,42.32
2023-05-14T12:09:49.580Z,42.53
2023-05-14T12:12:19.575Z,43.27
2023-05-14T12:14:46.741Z,43.04
2023-05-14T12:17:18.681Z,43.33
2023-05-14T12:19:50.965Z,43.24
2023-05-14T12:22:22.893Z,42.52
2023-05-14T12:24:57.715Z,42.79
2023-05-14T12:27:29.664Z,42.77
2023-05-14T12:30:20.548Z,43.38
2023-05-14T12:32:51.732Z,43.31
2023-05-14T12:35:18.610Z,42.68
2023-05-14T12:37:45.154Z,43.96
2023-05-14T12:40:11.958Z,44.64
2023-05-14T12:42:39.317Z,45.56
2023-05-14T12:45:08.728Z,45.27
2023-05-14T12:47:36.635Z,45.48
2023-05-14T12:50:03.753Z,45.79
2023-05-14T12:52:37.816Z,46.30
2023-05-14T12:55:07.920Z,45.95
2023-05-14T12:57:35.474Z,46.14
2023-05-14T13:00:06.822Z,45.82
2023-05-14T13:02:34.215Z,45.96
2023-05-14T13:05:10.816Z,45.61
2023-05-14T13:07:39.871Z,45.10
2023-05-14T13:10:07.131Z,44.53
2023-05-14T13:12:33.878Z,44.69
2023-05-14T13:15:00.477Z,44.59
2023-05-14T13:17:27.125Z,44.50
2023-05-14T13:19:53.564Z,45.28
2023-05-14T13:22:20.068Z,44.58
2023-05-14T13:24:46.605Z,45.21
2023-05-14T13:27:13.105Z,45.26
2023-05-14T13:32:10.662Z,44.30
2023-05-14T13:34:37.125Z,44.36
2023-05-14T13:37:04.056Z,44.56
2023-05-14T13:39:30.756Z,45.02
2023-05-14T13:41:57.267Z,44.85
2023-05-14T13:44:24.362Z,44.74
2023-05-14T13:46:51.156Z,43.95
2023-05-14T13:49:17.752Z,44.57
2023-05-14T13:51:44.441Z,45.38
2023-05-14T13:54:11.005Z,45.90
2023-05-14T13:56:37.617Z,46.13
2023-05-14T13:59:04.283Z,45.79
2023-05-14T14:01:31.994Z,45.84
2023-05-14T14:03:58.655Z,46.30
2023-05-14T14:06:27.460Z,45.52
2023-05-14T14:08:54.407Z,45.73
2023-05-14T14:11:21.434Z,45.42
2023-05-14T14:13:48.076Z,45.11
2023-05-14T14:16:14.601Z,45.75
2023-05-14T14:18:43.382Z,45.85
2023-05-14T14:21:10.544Z,45.94
2023-05-14T14:23:38.399Z,46.13
2023-05-14T14:26:04.931Z,45.96
2023-05-14T14:28:31.490Z,45.42
2023-05-14T14:30:58.159Z,45.50
2023-05-14T14:33:24.788Z,44.16
2023-05-14T14:35:51.801Z,44.77
2023-05-14T14:38:19.186Z,44.23
2023-05-14T14:40:46.374Z,44.23
2023-05-14T14:43:12.993Z,44.28
2023-05-14T14:45:39.500Z,44.10
2023-05-14T14:48:33.892Z,45.03
2023-05-14T14:51:01.535Z,46.00
2023-05-14T14:53:28.111Z,45.98
2023-05-14T14:55:55.130Z,45.40
2023-05-14T14:58:21.927Z,45.88
2023-05-14T15:00:53.699Z,46.48
2023-05-14T15:03:21.325Z,46.69
2023-05-14T15:05:48.240Z,46.59
2023-05-14T15:08:15.517Z,46.16
2023-05-14T15:10:42.065Z,46.62
2023-05-14T15:13:09.024Z,46.91
2023-05-14T15:15:36.252Z,47.22
2023-05-14T15:18:03.536Z,47.48
2023-05-14T15:20:30.427Z,47.54
2023-05-14T15:22:57.007Z,47.85
2023-05-14T15:25:24.289Z,48.04
2023-05-14T15:27:50.885Z,47.94
2023-05-14T15:30:17.638Z,47.90
2023-05-14T15:32:45.174Z,47.87
2023-05-14T15:35:11.807Z,47.17
2023-05-14T15:37:41.094Z,47.88
2023-05-14T15:40:09.068Z,47.36
2023-05-14T15:42:36.821Z,46.93
2023-05-14T15:45:03.618Z,46.75
2023-05-14T15:47:30.160Z,45.98
2023-05-14T15:49:56.595Z,46.27
2023-05-14T15:52:23.428Z,46.59
2023-05-14T15:54:50.168Z,46.68
2023-05-14T15:57:19.179Z,46.75
2023-05-14T15:59:47.004Z,46.37
2023-05-14T16:02:14.093Z,46.46
2023-05-14T16:04:40.526Z,46.80
2023-05-14T16:07:12.069Z,46.97
2023-05-14T16:09:38.813Z,47.34
2023-05-14T16:12:06.191Z,47.64
2023-05-14T16:14:35.897Z,48.09
2023-05-14T16:17:02.421Z,48.46
2023-05-14T16:19:29.044Z,49.21
2023-05-14T16:21:56.671Z,49.71
2023-05-14T16:24:23.150Z,49.53
2023-05-14T16:26:49.667Z,49.72
2023-05-14T16:29:16.428Z,49.47
2023-05-14T16:31:42.880Z,49.41
2023-05-14T16:34:09.412Z,49.19
2023-05-14T16:36:36.000Z,49.56
2023-05-14T16:41:32.405Z,49.88
2023-05-14T16:43:58.892Z,50.36
2023-05-14T16:46:25.515Z,51.43
2023-05-14T16:48:52.006Z,51.70
2023-05-14T16:51:18.464Z,51.43
2023-05-14T16:53:45.014Z,50.53
2023-05-14T16:56:11.550Z,50.30
2023-05-14T16:58:38.239Z,50.87
2023-05-14T17:01:06.281Z,50.79
2023-05-14T17:03:33.933Z,50.74
2023-05-14T17:06:01.122Z,50.82
2023-05-14T17:08:33.153Z,50.55
2023-05-14T17:10:59.758Z,50.56
2023-05-14T17:13:26.319Z,50.95
2023-05-14T17:15:53.285Z,51.61
2023-05-14T17:18:19.867Z,51.92
2023-05-14T17:20:46.359Z,52.24
2023-05-14T17:23:13.608Z,52.40
2023-05-14T17:25:40.090Z,52.26
2023-05-14T17:28:06.732Z,52.46
2023-05-14T17:30:33.230Z,52.34
2023-05-14T17:33:00.091Z,52.20
2023-05-14T17:35:26.864Z,52.97
2023-05-14T17:37:56.111Z,53.57
2023-05-14T17:40:22.624Z,54.16
2023-05-14T17:42:49.356Z,54.23
2023-05-14T17:45:20.686Z,54.64
2023-05-14T17:47:49.325Z,55.11
2023-05-14T17:50:15.886Z,55.71
2023-05-14T17:52:44.234Z,55.89
2023-05-14T17:55:11.139Z,55.51
2023-05-14T17:57:37.740Z,55.72
2023-05-14T18:00:07.575Z,55.60
2023-05-14T18:02:34.180Z,54.91
2023-05-14T18:05:02.615Z,54.82
2023-05-14T18:07:30.198Z,55.07
2023-05-14T18:09:57.151Z,54.78
2023-05-14T18:12:25.633Z,54.76
2023-05-14T18:14:52.988Z,55.01
2023-05-14T18:17:19.468Z,55.09
2023-05-14T18:19:45.961Z,55.59
2023-05-14T18:22:13.216Z,55.83
2023-05-14T18:24:39.729Z,55.82
2023-05-14T18:27:06.348Z,55.92
2023-05-14T18:29:33.229Z,56.07
2023-05-14T18:31:59.729Z,56.14
2023-05-14T18:34:26.255Z,56.28
2023-05-14T18:36:52.843Z,56.31
2023-05-14T18:39:24.072Z,56.65
2023-05-14T18:41:50.723Z,56.42
2023-05-14T18:44:17.179Z,55.94
2023-05-14T18:46:44.621Z,56.08
2023-05-14T18:49:11.254Z,56.14
2023-05-14T18:51:37.746Z,56.42
2023-05-14T18:54:04.661Z,56.76
2023-05-14T18:56:31.316Z,57.42
2023-05-14T18:58:57.784Z,57.53
2023-05-14T19:01:25.630Z,57.68
2023-05-14T19:03:53.140Z,58.03
2023-05-14T19:06:19.938Z,58.15
2023-05-14T19:08:46.468Z,58.53
2023-05-14T19:11:13.046Z,58.65
2023-05-14T19:13:39.585Z,58.18
2023-05-14T19:16:06.721Z,58.27
2023-05-14T19:18:33.380Z,58.84
2023-05-14T19:21:00.015Z,58.20
2023-05-14T19:23:26.586Z,58.60
2023-05-14T19:25:54.084Z,58.54
2023-05-14T19:28:20.659Z,58.64
2023-05-14T19:30:47.751Z,58.79
2023-05-14T19:33:15.087Z,58.76
2023-05-14T19:35:41.713Z,58.98
2023-05-14T19:38:10.431Z,58.83
2023-05-14T19:40:36.979Z,58.84
2023-05-14T19:43:05.438Z,59.24
2023-05-14T19:45:32.016Z,59.72
2023-05-14T19:47:58.521Z,59.89
2023-05-14T19:50:25.051Z,59.98
2023-05-14T19:52:52.804Z,60.51
2023-05-14T19:55:19.234Z,61.17
2023-05-14T19:57:45.747Z,61.33
2023-05-14T20:00:13.570Z,61.43
2023-05-14T20:02:41.014Z,61.58
2023-05-14T20:05:09.242Z,61.92
2023-05-14T20:07:36.460Z,62.48
2023-05-14T20:10:05.690Z,62.76
2023-05-14T20:12:32.185Z,62.46
2023-05-14T20:14:58.631Z,63.15
2023-05-14T20:17:25.151Z,63.45
2023-05-14T20:19:52.763Z,63.58
2023-05-14T20:22:19.203Z,63.76
2023-05-14T20:24:46.809Z,63.99
2023-05-14T20:27:13.345Z,64.23
2023-05-14T20:29:39.855Z,64.64
2023-05-14T20:32:06.929Z,64.47
2023-05-14T20:34:33.410Z,64.72
2023-05-14T20:37:00.160Z,65.10
2023-05-14T20:39:27.514Z,65.24
2023-05-14T20:41:53.971Z,65.37
2023-05-14T20:47:02.838Z,65.87
2023-05-14T20:49:29.438Z,66.37
2023-05-14T20:51:56.033Z,66.46
2023-05-14T20:54:26.837Z,66.65
2023-05-14T20:56:53.867Z,66.70
2023-05-14T20:59:20.604Z,66.89
2023-05-14T21:01:47.158Z,67.00
2023-05-14T21:04:15.893Z,66.83
2023-05-14T21:06:42.574Z,67.07
2023-05-14T21:09:09.408Z,67.18
2023-05-14T21:11:35.971Z,67.48
2023-05-14T21:14:02.412Z,67.67
2023-05-14T21:16:31.109Z,67.85
2023-05-14T21:18:57.725Z,68.19
2023-05-14T21:21:24.533Z,68.00
2023-05-14T21:23:52.395Z,68.27
2023-05-14T21:26:23.623Z,68.53
2023-05-14T21:28:50.386Z,68.52
2023-05-14T21:31:16.969Z,68.78
2023-05-14T21:33:46.551Z,69.01
2023-05-14T21:36:13.159Z,69.19
2023-05-14T21:38:39.749Z,69.61
2023-05-14T21:41:06.154Z,69.97
2023-05-14T21:43:33.003Z,69.92
2023-05-14T21:45:59.395Z,69.84
2023-05-14T21:48:26.056Z,70.13
2023-05-14T21:50:52.633Z,70.74
2023-05-14T21:53:19.216Z,70.92
2023-05-14T21:55:45.727Z,71.10
2023-05-14T21:58:12.268Z,71.17
2023-05-14T22:00:38.894Z,71.35
2023-05-14T22:03:05.415Z,71.45
2023-05-14T22:05:31.897Z,71.81
2023-05-14T22:07:58.442Z,71.94
2023-05-14T22:10:25.039Z,72.22
2023-05-14T22:12:51.508Z,72.92
2023-05-14T22:15:17.959Z,72.75
2023-05-14T22:17:45.063Z,72.91
2023-05-14T22:20:11.654Z,73.75
2023-05-14T22:22:39.318Z,73.37
2023-05-14T22:25:06.176Z,73.80
2023-05-14T22:27:32.702Z,74.81
2023-05-14T22:29:59.294Z,74.93
2023-05-14T22:32:26.130Z,74.91
2023-05-14T22:34:52.803Z,74.90
2023-05-14T22:37:19.275Z,74.86
2023-05-14T22:39:45.747Z,75.25
2023-05-14T22:42:12.259Z,75.28
2023-05-14T22:44:38.714Z,75.16
2023-05-14T22:47:05.273Z,75.50
2023-05-14T22:49:31.923Z,75.48
2023-05-14T22:51:58.479Z,75.63
2023-05-14T22:54:24.944Z,75.70
2023-05-14T22:56:51.558Z,75.75
2023-05-14T22:59:18.483Z,75.57
2023-05-14T23:01:45.079Z,75.71
2023-05-14T23:04:11.608Z,75.56
2023-05-14T23:06:38.098Z,75.70
2023-05-14T23:09:04.544Z,76.00
2023-05-14T23:11:31.024Z,76.02
2023-05-14T23:13:57.560Z,76.20
2023-05-14T23:16:24.188Z,76.10
2023-05-14T23:18:51.355Z,76.27
2023-05-14T23:21:17.897Z,76.21
2023-05-14T23:23:45.388Z,75.99
2023-05-14T23:26:12.101Z,76.14
2023-05-14T23:28:38.525Z,75.97
2023-05-14T23:31:05.059Z,76.08
2023-05-14T23:33:31.502Z,76.14
2023-05-14T23:35:58.091Z,76.11
2023-05-14T23:38:24.697Z,76.35
2023-05-14T23:40:51.121Z,76.36
2023-05-14T23:43:17.717Z,76.36
2023-05-14T23:45:44.244Z,76.30
2023-05-14T23:48:10.798Z,76.11
2023-05-14T23:50:38.171Z,76.02
2023-05-14T23:53:04.596Z,76.52
2023-05-14T23:55:31.168Z,77.00
2023-05-14T23:57:57.591Z,77.08
